sensor_id;sensor_type;location;lat;lon;timestamp;temperature;humidity
4651;DHT22;2338;49.602;8.722;2022-12-08T00:00:34;5.30;99.90
4651;DHT22;2338;49.602;8.722;2022-12-08T00:03:19;5.20;99.90
4651;DHT22;2338;49.602;8.722;2022-12-08T00:06:06;5.10;99.90
4651;DHT22;2338;49.602;8.722;2022-12-08T00:09:15;5.10;99.90
4651;DHT22;2338;49.602;8.722;2022-12-08T00:12:08;5.20;99.90
4651;DHT22;2338;49.602;8.722;2022-12-08T00:14:55;5.20;99.90
4651;DHT22;2338;49.602;8.722;2022-12-08T00:17:40;5.20;99.90
4651;DHT22;2338;49.602;8.722;2022-12-08T00:20:26;5.30;99.90
4651;DHT22;2338;49.602;8.722;2022-12-08T00:23:12;5.10;99.90
4651;DHT22;2338;49.602;8.722;2022-12-08T00:26:01;5.10;99.90
4651;DHT22;2338;49.602;8.722;2022-12-08T00:28:47;4.80;99.90
4651;DHT22;2338;49.602;8.722;2022-12-08T00:31:34;4.70;99.90
4651;DHT22;2338;49.602;8.722;2022-12-08T00:34:19;4.60;99.90
4651;DHT22;2338;49.602;8.722;2022-12-08T00:37:05;4.60;99.90
4651;DHT22;2338;49.602;8.722;2022-12-08T00:39:55;4.60;99.90
4651;DHT22;2338;49.602;8.722;2022-12-08T00:42:40;4.70;99.90
4651;DHT22;2338;49.602;8.722;2022-12-08T00:45:26;4.70;99.90
4651;DHT22;2338;49.602;8.722;2022-12-08T00:48:13;4.70;99.90
4651;DHT22;2338;49.602;8.722;2022-12-08T00:50:58;4.60;99.90
4651;DHT22;2338;49.602;8.722;2022-12-08T00:53:43;4.80;99.90
4651;DHT22;2338;49.602;8.722;2022-12-08T00:56:29;4.80;99.90
4651;DHT22;2338;49.602;8.722;2022-12-08T00:59:15;4.80;99.90
4651;DHT22;2338;49.602;8.722;2022-12-08T01:02:00;4.90;99.90
4651;DHT22;2338;49.602;8.722;2022-12-08T01:04:47;4.80;99.90
4651;DHT22;2338;49.602;8.722;2022-12-08T01:07:33;4.70;99.90
4651;DHT22;2338;49.602;8.722;2022-12-08T01:10:18;4.70;99.90
4651;DHT22;2338;49.602;8.722;2022-12-08T01:13:04;4.80;99.90
4651;DHT22;2338;49.602;8.722;2022-12-08T01:15:49;4.90;99.90
4651;DHT22;2338;49.602;8.722;2022-12-08T01:18:36;4.90;99.90
4651;DHT22;2338;49.602;8.722;2022-12-08T01:21:23;4.90;99.90
4651;DHT22;2338;49.602;8.722;2022-12-08T01:24:10;4.80;99.90
4651;DHT22;2338;49.602;8.722;2022-12-08T01:26:56;4.80;99.90
4651;DHT22;2338;49.602;8.722;2022-12-08T01:29:42;4.90;99.90
4651;DHT22;2338;49.602;8.722;2022-12-08T01:32:27;5.00;99.90
4651;DHT22;2338;49.602;8.722;2022-12-08T01:35:13;5.00;99.90
4651;DHT22;2338;49.602;8.722;2022-12-08T01:38:00;4.90;99.90
4651;DHT22;2338;49.602;8.722;2022-12-08T01:40:46;4.90;99.90
4651;DHT22;2338;49.602;8.722;2022-12-08T01:43:55;4.80;99.90
4651;DHT22;2338;49.602;8.722;2022-12-08T01:46:42;4.80;99.90
4651;DHT22;2338;49.602;8.722;2022-12-08T01:49:30;4.70;99.90
4651;DHT22;2338;49.602;8.722;2022-12-08T01:52:21;4.70;99.90
4651;DHT22;2338;49.602;8.722;2022-12-08T01:55:12;4.80;99.90
4651;DHT22;2338;49.602;8.722;2022-12-08T01:58:04;4.80;99.90
4651;DHT22;2338;49.602;8.722;2022-12-08T02:00:52;4.90;99.90
4651;DHT22;2338;49.602;8.722;2022-12-08T02:03:41;4.90;99.90
4651;DHT22;2338;49.602;8.722;2022-12-08T02:06:30;4.70;99.90
4651;DHT22;2338;49.602;8.722;2022-12-08T02:09:18;4.70;99.90
4651;DHT22;2338;49.602;8.722;2022-12-08T02:12:05;4.80;99.90
4651;DHT22;2338;49.602;8.722;2022-12-08T02:14:51;4.70;99.90
4651;DHT22;2338;49.602;8.722;2022-12-08T02:17:48;4.80;99.90
4651;DHT22;2338;49.602;8.722;2022-12-08T02:20:48;4.80;99.90
4651;DHT22;2338;49.602;8.722;2022-12-08T02:23:45;4.90;99.90
4651;DHT22;2338;49.602;8.722;2022-12-08T02:27:12;4.80;99.90
4651;DHT22;2338;49.602;8.722;2022-12-08T02:30:07;4.80;99.90
4651;DHT22;2338;49.602;8.722;2022-12-08T02:36:14;4.80;99.90
4651;DHT22;2338;49.602;8.722;2022-12-08T02:39:09;4.90;99.90
4651;DHT22;2338;49.602;8.722;2022-12-08T02:42:03;4.90;99.90
4651;DHT22;2338;49.602;8.722;2022-12-08T02:44:53;4.80;99.90
4651;DHT22;2338;49.602;8.722;2022-12-08T02:47:40;4.80;99.90
4651;DHT22;2338;49.602;8.722;2022-12-08T02:50:25;4.80;99.90
4651;DHT22;2338;49.602;8.722;2022-12-08T02:53:12;4.70;99.90
4651;DHT22;2338;49.602;8.722;2022-12-08T02:56:04;4.60;99.90
4651;DHT22;2338;49.602;8.722;2022-12-08T02:59:15;4.70;99.90
4651;DHT22;2338;49.602;8.722;2022-12-08T03:02:15;4.70;99.90
4651;DHT22;2338;49.602;8.722;2022-12-08T03:05:09;4.80;99.90
4651;DHT22;2338;49.602;8.722;2022-12-08T03:07:59;4.80;99.90
4651;DHT22;2338;49.602;8.722;2022-12-08T03:10:51;4.70;99.90
4651;DHT22;2338;49.602;8.722;2022-12-08T03:13:42;4.50;99.90
4651;DHT22;2338;49.602;8.722;2022-12-08T03:16:29;4.50;99.90
4651;DHT22;2338;49.602;8.722;2022-12-08T03:19:18;4.60;99.90
4651;DHT22;2338;49.602;8.722;2022-12-08T03:22:06;4.50;99.90
4651;DHT22;2338;49.602;8.722;2022-12-08T03:24:52;4.60;99.90
4651;DHT22;2338;49.602;8.722;2022-12-08T03:27:39;4.60;99.90
4651;DHT22;2338;49.602;8.722;2022-12-08T03:30:27;4.60;99.90
4651;DHT22;2338;49.602;8.722;2022-12-08T03:33:18;4.60;99.90
4651;DHT22;2338;49.602;8.722;2022-12-08T03:36:08;4.60;99.90
4651;DHT22;2338;49.602;8.722;2022-12-08T03:38:55;4.70;99.90
4651;DHT22;2338;49.602;8.722;2022-12-08T03:41:41;4.60;99.90
4651;DHT22;2338;49.602;8.722;2022-12-08T03:44:28;4.60;99.90
4651;DHT22;2338;49.602;8.722;2022-12-08T03:47:14;4.70;99.90
4651;DHT22;2338;49.602;8.722;2022-12-08T03:49:59;4.70;99.90
4651;DHT22;2338;49.602;8.722;2022-12-08T03:52:45;4.80;99.90
4651;DHT22;2338;49.602;8.722;2022-12-08T03:55:31;4.70;99.90
4651;DHT22;2338;49.602;8.722;2022-12-08T03:58:16;4.80;99.90
4651;DHT22;2338;49.602;8.722;2022-12-08T04:01:03;4.80;99.90
4651;DHT22;2338;49.602;8.722;2022-12-08T04:03:49;4.70;99.90
4651;DHT22;2338;49.602;8.722;2022-12-08T04:06:35;4.70;99.90
4651;DHT22;2338;49.602;8.722;2022-12-08T04:09:20;4.60;99.90
4651;DHT22;2338;49.602;8.722;2022-12-08T04:12:06;4.50;99.90
4651;DHT22;2338;49.602;8.722;2022-12-08T04:14:51;4.60;99.90
4651;DHT22;2338;49.602;8.722;2022-12-08T04:17:38;4.60;99.90
4651;DHT22;2338;49.602;8.722;2022-12-08T04:20:23;4.60;99.90
4651;DHT22;2338;49.602;8.722;2022-12-08T04:23:10;4.70;99.90
4651;DHT22;2338;49.602;8.722;2022-12-08T04:25:56;4.60;99.90
4651;DHT22;2338;49.602;8.722;2022-12-08T04:28:41;4.50;99.90
4651;DHT22;2338;49.602;8.722;2022-12-08T04:31:27;4.50;99.90
4651;DHT22;2338;49.602;8.722;2022-12-08T04:34:14;4.50;99.90
4651;DHT22;2338;49.602;8.722;2022-12-08T04:36:59;4.60;99.90
4651;DHT22;2338;49.602;8.722;2022-12-08T04:39:45;4.70;99.90
4651;DHT22;2338;49.602;8.722;2022-12-08T04:42:30;4.80;99.90
4651;DHT22;2338;49.602;8.722;2022-12-08T04:45:16;4.90;99.90
4651;DHT22;2338;49.602;8.722;2022-12-08T04:48:02;4.90;99.90
4651;DHT22;2338;49.602;8.722;2022-12-08T04:50:49;4.90;99.90
4651;DHT22;2338;49.602;8.722;2022-12-08T04:53:34;4.90;99.90
4651;DHT22;2338;49.602;8.722;2022-12-08T04:56:20;4.70;99.90
4651;DHT22;2338;49.602;8.722;2022-12-08T04:59:05;4.70;99.90
4651;DHT22;2338;49.602;8.722;2022-12-08T05:01:51;4.50;99.90
4651;DHT22;2338;49.602;8.722;2022-12-08T05:04:37;4.50;99.90
4651;DHT22;2338;49.602;8.722;2022-12-08T05:07:24;4.60;99.90
4651;DHT22;2338;49.602;8.722;2022-12-08T05:10:09;4.70;99.90
4651;DHT22;2338;49.602;8.722;2022-12-08T05:12:54;4.80;99.90
4651;DHT22;2338;49.602;8.722;2022-12-08T05:15:40;4.70;99.90
4651;DHT22;2338;49.602;8.722;2022-12-08T05:18:26;4.70;99.90
4651;DHT22;2338;49.602;8.722;2022-12-08T05:21:11;4.60;99.90
4651;DHT22;2338;49.602;8.722;2022-12-08T05:23:58;4.60;99.90
4651;DHT22;2338;49.602;8.722;2022-12-08T05:26:44;4.60;99.90
4651;DHT22;2338;49.602;8.722;2022-12-08T05:29:29;4.70;99.90
4651;DHT22;2338;49.602;8.722;2022-12-08T05:32:15;4.70;99.90
4651;DHT22;2338;49.602;8.722;2022-12-08T05:35:01;4.80;99.90
4651;DHT22;2338;49.602;8.722;2022-12-08T05:37:46;4.90;99.90
4651;DHT22;2338;49.602;8.722;2022-12-08T05:40:33;4.90;99.90
4651;DHT22;2338;49.602;8.722;2022-12-08T05:43:19;4.90;99.90
4651;DHT22;2338;49.602;8.722;2022-12-08T05:46:04;4.80;99.90
4651;DHT22;2338;49.602;8.722;2022-12-08T05:48:51;4.70;99.90
4651;DHT22;2338;49.602;8.722;2022-12-08T05:51:36;4.70;99.90
4651;DHT22;2338;49.602;8.722;2022-12-08T05:54:22;4.70;99.90
4651;DHT22;2338;49.602;8.722;2022-12-08T05:57:09;4.90;99.90
4651;DHT22;2338;49.602;8.722;2022-12-08T05:59:54;4.80;99.90
4651;DHT22;2338;49.602;8.722;2022-12-08T06:02:42;4.90;99.90
4651;DHT22;2338;49.602;8.722;2022-12-08T06:05:28;4.90;99.90
4651;DHT22;2338;49.602;8.722;2022-12-08T06:08:13;4.80;99.90
4651;DHT22;2338;49.602;8.722;2022-12-08T06:10:59;4.60;99.90
4651;DHT22;2338;49.602;8.722;2022-12-08T06:13:46;4.60;99.90
4651;DHT22;2338;49.602;8.722;2022-12-08T06:16:32;4.50;99.90
4651;DHT22;2338;49.602;8.722;2022-12-08T06:19:18;4.50;99.90
4651;DHT22;2338;49.602;8.722;2022-12-08T06:22:03;4.40;99.90
4651;DHT22;2338;49.602;8.722;2022-12-08T06:24:49;4.30;99.90
4651;DHT22;2338;49.602;8.722;2022-12-08T06:27:34;4.30;99.90
4651;DHT22;2338;49.602;8.722;2022-12-08T06:30:21;4.30;99.90
4651;DHT22;2338;49.602;8.722;2022-12-08T06:33:07;4.20;99.90
4651;DHT22;2338;49.602;8.722;2022-12-08T06:35:52;4.30;99.90
4651;DHT22;2338;49.602;8.722;2022-12-08T06:38:38;4.30;99.90
4651;DHT22;2338;49.602;8.722;2022-12-08T06:41:24;4.40;99.90
4651;DHT22;2338;49.602;8.722;2022-12-08T06:44:09;4.40;99.90
4651;DHT22;2338;49.602;8.722;2022-12-08T06:46:56;4.30;99.90
4651;DHT22;2338;49.602;8.722;2022-12-08T06:49:42;4.40;99.90
4651;DHT22;2338;49.602;8.722;2022-12-08T06:52:28;4.30;99.90
4651;DHT22;2338;49.602;8.722;2022-12-08T06:55:13;4.20;99.90
4651;DHT22;2338;49.602;8.722;2022-12-08T06:57:59;4.20;99.90
4651;DHT22;2338;49.602;8.722;2022-12-08T07:00:45;4.10;99.90
4651;DHT22;2338;49.602;8.722;2022-12-08T07:03:31;4.00;99.90
4651;DHT22;2338;49.602;8.722;2022-12-08T07:06:21;4.00;99.90
4651;DHT22;2338;49.602;8.722;2022-12-08T07:09:06;4.00;99.90
4651;DHT22;2338;49.602;8.722;2022-12-08T07:11:52;4.00;99.90
4651;DHT22;2338;49.602;8.722;2022-12-08T07:14:38;4.10;99.90
4651;DHT22;2338;49.602;8.722;2022-12-08T07:17:24;4.10;99.90
4651;DHT22;2338;49.602;8.722;2022-12-08T07:20:11;4.00;99.90
4651;DHT22;2338;49.602;8.722;2022-12-08T07:22:57;4.10;99.90
4651;DHT22;2338;49.602;8.722;2022-12-08T07:25:42;4.20;99.90
4651;DHT22;2338;49.602;8.722;2022-12-08T07:28:30;4.30;99.90
4651;DHT22;2338;49.602;8.722;2022-12-08T07:31:17;4.40;99.90
4651;DHT22;2338;49.602;8.722;2022-12-08T07:34:03;4.50;99.90
4651;DHT22;2338;49.602;8.722;2022-12-08T07:36:50;4.50;99.90
4651;DHT22;2338;49.602;8.722;2022-12-08T07:39:36;4.60;99.90
4651;DHT22;2338;49.602;8.722;2022-12-08T07:42:21;4.60;99.90
4651;DHT22;2338;49.602;8.722;2022-12-08T07:45:08;4.60;99.90
4651;DHT22;2338;49.602;8.722;2022-12-08T07:47:53;4.70;99.90
4651;DHT22;2338;49.602;8.722;2022-12-08T07:50:39;4.80;99.90
4651;DHT22;2338;49.602;8.722;2022-12-08T07:53:26;4.80;99.90
4651;DHT22;2338;49.602;8.722;2022-12-08T07:56:12;4.80;99.90
4651;DHT22;2338;49.602;8.722;2022-12-08T07:58:58;4.70;99.90
4651;DHT22;2338;49.602;8.722;2022-12-08T08:01:45;4.70;99.90
4651;DHT22;2338;49.602;8.722;2022-12-08T08:04:31;4.70;99.90
4651;DHT22;2338;49.602;8.722;2022-12-08T08:07:17;4.60;99.90
4651;DHT22;2338;49.602;8.722;2022-12-08T08:10:05;4.60;99.90
4651;DHT22;2338;49.602;8.722;2022-12-08T08:12:51;4.60;99.90
4651;DHT22;2338;49.602;8.722;2022-12-08T08:15:36;4.70;99.90
4651;DHT22;2338;49.602;8.722;2022-12-08T08:18:22;4.70;99.90
4651;DHT22;2338;49.602;8.722;2022-12-08T08:21:08;4.70;99.90
4651;DHT22;2338;49.602;8.722;2022-12-08T08:23:54;4.70;99.90
4651;DHT22;2338;49.602;8.722;2022-12-08T08:26:41;4.60;99.90
4651;DHT22;2338;49.602;8.722;2022-12-08T08:29:26;4.50;99.90
4651;DHT22;2338;49.602;8.722;2022-12-08T08:32:12;4.50;99.90
4651;DHT22;2338;49.602;8.722;2022-12-08T08:34:57;4.60;99.90
4651;DHT22;2338;49.602;8.722;2022-12-08T08:37:43;4.70;99.90
4651;DHT22;2338;49.602;8.722;2022-12-08T08:40:29;4.70;99.90
4651;DHT22;2338;49.602;8.722;2022-12-08T08:43:16;4.80;99.90
4651;DHT22;2338;49.602;8.722;2022-12-08T08:46:12;4.80;99.90
4651;DHT22;2338;49.602;8.722;2022-12-08T08:48:58;4.90;99.90
4651;DHT22;2338;49.602;8.722;2022-12-08T08:51:44;4.80;99.90
4651;DHT22;2338;49.602;8.722;2022-12-08T08:54:30;4.80;99.90
4651;DHT22;2338;49.602;8.722;2022-12-08T08:57:15;4.80;99.90
4651;DHT22;2338;49.602;8.722;2022-12-08T09:00:04;4.80;99.90
4651;DHT22;2338;49.602;8.722;2022-12-08T09:02:50;4.90;99.90
4651;DHT22;2338;49.602;8.722;2022-12-08T09:05:36;4.90;99.90
4651;DHT22;2338;49.602;8.722;2022-12-08T09:08:22;4.80;99.90
4651;DHT22;2338;49.602;8.722;2022-12-08T09:11:08;4.90;99.90
4651;DHT22;2338;49.602;8.722;2022-12-08T09:13:55;4.90;99.90
4651;DHT22;2338;49.602;8.722;2022-12-08T09:16:42;5.00;99.90
4651;DHT22;2338;49.602;8.722;2022-12-08T09:19:27;5.00;99.90
4651;DHT22;2338;49.602;8.722;2022-12-08T09:22:13;5.00;99.90
4651;DHT22;2338;49.602;8.722;2022-12-08T09:25:00;5.00;99.90
4651;DHT22;2338;49.602;8.722;2022-12-08T09:27:45;4.90;99.90
4651;DHT22;2338;49.602;8.722;2022-12-08T09:30:31;5.00;99.90
4651;DHT22;2338;49.602;8.722;2022-12-08T09:33:18;4.90;99.90
4651;DHT22;2338;49.602;8.722;2022-12-08T09:36:03;4.90;99.90
4651;DHT22;2338;49.602;8.722;2022-12-08T09:38:50;4.80;99.90
4651;DHT22;2338;49.602;8.722;2022-12-08T09:41:42;4.80;99.90
4651;DHT22;2338;49.602;8.722;2022-12-08T09:44:39;4.70;99.90
4651;DHT22;2338;49.602;8.722;2022-12-08T09:47:29;4.70;99.90
4651;DHT22;2338;49.602;8.722;2022-12-08T09:50:26;4.80;99.90
4651;DHT22;2338;49.602;8.722;2022-12-08T09:53:15;4.80;99.90
4651;DHT22;2338;49.602;8.722;2022-12-08T09:56:07;4.80;99.90
4651;DHT22;2338;49.602;8.722;2022-12-08T09:58:56;4.80;99.90
4651;DHT22;2338;49.602;8.722;2022-12-08T10:01:42;4.80;99.90
4651;DHT22;2338;49.602;8.722;2022-12-08T10:04:30;4.90;99.90
4651;DHT22;2338;49.602;8.722;2022-12-08T10:07:23;5.10;99.90
4651;DHT22;2338;49.602;8.722;2022-12-08T10:10:20;5.00;99.90
4651;DHT22;2338;49.602;8.722;2022-12-08T10:13:13;5.10;99.90
4651;DHT22;2338;49.602;8.722;2022-12-08T10:16:10;5.00;99.90
4651;DHT22;2338;49.602;8.722;2022-12-08T10:19:01;5.00;99.90
4651;DHT22;2338;49.602;8.722;2022-12-08T10:21:52;5.00;99.90
4651;DHT22;2338;49.602;8.722;2022-12-08T10:24:43;5.00;99.90
4651;DHT22;2338;49.602;8.722;2022-12-08T10:27:33;5.00;99.90
4651;DHT22;2338;49.602;8.722;2022-12-08T10:30:21;5.30;99.90
4651;DHT22;2338;49.602;8.722;2022-12-08T10:33:11;5.40;99.90
4651;DHT22;2338;49.602;8.722;2022-12-08T10:35:59;5.40;99.90
4651;DHT22;2338;49.602;8.722;2022-12-08T10:38:46;5.50;99.90
4651;DHT22;2338;49.602;8.722;2022-12-08T10:41:33;5.60;99.90
4651;DHT22;2338;49.602;8.722;2022-12-08T10:44:19;5.60;99.90
4651;DHT22;2338;49.602;8.722;2022-12-08T10:47:11;5.70;99.90
4651;DHT22;2338;49.602;8.722;2022-12-08T10:50:11;5.80;99.90
4651;DHT22;2338;49.602;8.722;2022-12-08T10:53:13;6.00;99.90
4651;DHT22;2338;49.602;8.722;2022-12-08T10:56:07;6.10;99.90
4651;DHT22;2338;49.602;8.722;2022-12-08T10:59:12;6.00;99.90
4651;DHT22;2338;49.602;8.722;2022-12-08T11:01:59;6.20;99.90
4651;DHT22;2338;49.602;8.722;2022-12-08T11:04:45;6.30;99.90
4651;DHT22;2338;49.602;8.722;2022-12-08T11:07:31;6.30;99.90
4651;DHT22;2338;49.602;8.722;2022-12-08T11:10:18;6.30;99.90
4651;DHT22;2338;49.602;8.722;2022-12-08T11:13:06;6.10;99.90
4651;DHT22;2338;49.602;8.722;2022-12-08T11:15:58;6.10;99.90
4651;DHT22;2338;49.602;8.722;2022-12-08T11:18:45;6.20;99.90
4651;DHT22;2338;49.602;8.722;2022-12-08T11:21:35;6.10;99.90
4651;DHT22;2338;49.602;8.722;2022-12-08T11:24:22;6.00;99.90
4651;DHT22;2338;49.602;8.722;2022-12-08T11:27:09;5.90;99.90
4651;DHT22;2338;49.602;8.722;2022-12-08T11:29:54;5.70;99.90
4651;DHT22;2338;49.602;8.722;2022-12-08T11:32:43;5.70;99.90
4651;DHT22;2338;49.602;8.722;2022-12-08T11:35:32;5.60;99.90
4651;DHT22;2338;49.602;8.722;2022-12-08T11:38:20;5.60;99.90
4651;DHT22;2338;49.602;8.722;2022-12-08T11:41:09;5.60;99.90
4651;DHT22;2338;49.602;8.722;2022-12-08T11:44:01;5.70;99.90
4651;DHT22;2338;49.602;8.722;2022-12-08T11:46:51;5.80;99.90
4651;DHT22;2338;49.602;8.722;2022-12-08T11:49:41;5.90;99.90
4651;DHT22;2338;49.602;8.722;2022-12-08T11:52:31;6.00;99.90
4651;DHT22;2338;49.602;8.722;2022-12-08T11:55:28;6.00;99.90
4651;DHT22;2338;49.602;8.722;2022-12-08T11:58:17;5.90;99.90
4651;DHT22;2338;49.602;8.722;2022-12-08T12:01:04;6.00;99.90
4651;DHT22;2338;49.602;8.722;2022-12-08T12:03:57;6.00;99.90
4651;DHT22;2338;49.602;8.722;2022-12-08T12:07:09;6.00;99.90
4651;DHT22;2338;49.602;8.722;2022-12-08T12:10:20;6.00;99.90
4651;DHT22;2338;49.602;8.722;2022-12-08T12:13:12;6.00;99.90
4651;DHT22;2338;49.602;8.722;2022-12-08T12:19:16;6.00;99.90
4651;DHT22;2338;49.602;8.722;2022-12-08T12:22:13;5.90;99.90
4651;DHT22;2338;49.602;8.722;2022-12-08T12:25:00;5.90;99.90
4651;DHT22;2338;49.602;8.722;2022-12-08T12:27:47;5.90;99.90
4651;DHT22;2338;49.602;8.722;2022-12-08T12:30:50;5.90;99.90
4651;DHT22;2338;49.602;8.722;2022-12-08T12:33:38;5.90;99.90
4651;DHT22;2338;49.602;8.722;2022-12-08T12:36:23;6.00;99.90
4651;DHT22;2338;49.602;8.722;2022-12-08T12:39:12;5.90;99.90
4651;DHT22;2338;49.602;8.722;2022-12-08T12:41:59;5.70;99.90
4651;DHT22;2338;49.602;8.722;2022-12-08T12:44:45;5.70;99.90
4651;DHT22;2338;49.602;8.722;2022-12-08T12:47:46;5.70;99.90
4651;DHT22;2338;49.602;8.722;2022-12-08T12:50:43;5.70;99.90
4651;DHT22;2338;49.602;8.722;2022-12-08T12:53:49;5.70;99.90
4651;DHT22;2338;49.602;8.722;2022-12-08T12:56:52;5.80;99.90
4651;DHT22;2338;49.602;8.722;2022-12-08T12:59:44;5.80;99.90
4651;DHT22;2338;49.602;8.722;2022-12-08T13:02:30;5.80;99.90
4651;DHT22;2338;49.602;8.722;2022-12-08T13:05:19;5.80;99.90
4651;DHT22;2338;49.602;8.722;2022-12-08T13:08:07;5.90;99.90
4651;DHT22;2338;49.602;8.722;2022-12-08T13:11:02;5.90;99.90
4651;DHT22;2338;49.602;8.722;2022-12-08T13:13:56;5.90;99.90
4651;DHT22;2338;49.602;8.722;2022-12-08T13:16:43;6.00;99.90
4651;DHT22;2338;49.602;8.722;2022-12-08T13:19:30;6.00;99.90
4651;DHT22;2338;49.602;8.722;2022-12-08T13:22:48;5.90;99.90
4651;DHT22;2338;49.602;8.722;2022-12-08T13:25:49;5.80;99.90
4651;DHT22;2338;49.602;8.722;2022-12-08T13:32:06;6.00;99.90
4651;DHT22;2338;49.602;8.722;2022-12-08T13:35:11;6.10;99.90
4651;DHT22;2338;49.602;8.722;2022-12-08T13:37:59;6.10;99.90
4651;DHT22;2338;49.602;8.722;2022-12-08T13:40:46;6.10;99.90
4651;DHT22;2338;49.602;8.722;2022-12-08T13:43:39;6.10;99.90
4651;DHT22;2338;49.602;8.722;2022-12-08T13:46:32;6.10;99.90
4651;DHT22;2338;49.602;8.722;2022-12-08T13:49:25;6.10;99.90
4651;DHT22;2338;49.602;8.722;2022-12-08T13:52:17;6.10;99.90
4651;DHT22;2338;49.602;8.722;2022-12-08T13:55:05;6.10;99.90
4651;DHT22;2338;49.602;8.722;2022-12-08T13:57:54;6.10;99.90
4651;DHT22;2338;49.602;8.722;2022-12-08T14:00:40;6.10;99.90
4651;DHT22;2338;49.602;8.722;2022-12-08T14:03:26;6.20;99.90
4651;DHT22;2338;49.602;8.722;2022-12-08T14:06:16;6.20;99.90
4651;DHT22;2338;49.602;8.722;2022-12-08T14:09:05;6.10;99.90
4651;DHT22;2338;49.602;8.722;2022-12-08T14:11:54;6.10;99.90
4651;DHT22;2338;49.602;8.722;2022-12-08T14:14:42;6.10;99.90
4651;DHT22;2338;49.602;8.722;2022-12-08T14:17:29;6.00;99.90
4651;DHT22;2338;49.602;8.722;2022-12-08T14:20:19;6.00;99.90
4651;DHT22;2338;49.602;8.722;2022-12-08T14:23:08;6.00;99.90
4651;DHT22;2338;49.602;8.722;2022-12-08T14:25:54;6.00;99.90
4651;DHT22;2338;49.602;8.722;2022-12-08T14:28:40;5.90;99.90
4651;DHT22;2338;49.602;8.722;2022-12-08T14:31:27;6.00;99.90
4651;DHT22;2338;49.602;8.722;2022-12-08T14:34:13;6.00;99.90
4651;DHT22;2338;49.602;8.722;2022-12-08T14:36:58;5.90;99.90
4651;DHT22;2338;49.602;8.722;2022-12-08T14:39:45;5.90;99.90
4651;DHT22;2338;49.602;8.722;2022-12-08T14:42:41;5.80;99.90
4651;DHT22;2338;49.602;8.722;2022-12-08T14:45:27;5.80;99.90
4651;DHT22;2338;49.602;8.722;2022-12-08T14:48:23;5.80;99.90
4651;DHT22;2338;49.602;8.722;2022-12-08T14:51:15;5.70;99.90
4651;DHT22;2338;49.602;8.722;2022-12-08T14:54:06;5.80;99.90
4651;DHT22;2338;49.602;8.722;2022-12-08T14:56:54;5.70;99.90
4651;DHT22;2338;49.602;8.722;2022-12-08T14:59:41;5.80;99.90
4651;DHT22;2338;49.602;8.722;2022-12-08T15:02:31;5.80;99.90
4651;DHT22;2338;49.602;8.722;2022-12-08T15:05:19;5.80;99.90
4651;DHT22;2338;49.602;8.722;2022-12-08T15:08:06;5.70;99.90
4651;DHT22;2338;49.602;8.722;2022-12-08T15:11:11;5.70;99.90
4651;DHT22;2338;49.602;8.722;2022-12-08T15:13:58;5.60;99.90
4651;DHT22;2338;49.602;8.722;2022-12-08T15:16:43;5.50;99.90
4651;DHT22;2338;49.602;8.722;2022-12-08T15:19:30;5.60;99.90
4651;DHT22;2338;49.602;8.722;2022-12-08T15:22:20;5.60;99.90
4651;DHT22;2338;49.602;8.722;2022-12-08T15:25:10;5.60;99.90
4651;DHT22;2338;49.602;8.722;2022-12-08T15:27:56;5.60;99.90
4651;DHT22;2338;49.602;8.722;2022-12-08T15:30:43;5.70;99.90
4651;DHT22;2338;49.602;8.722;2022-12-08T15:33:29;5.60;99.90
4651;DHT22;2338;49.602;8.722;2022-12-08T15:36:14;5.60;99.90
4651;DHT22;2338;49.602;8.722;2022-12-08T15:39:00;5.70;99.90
4651;DHT22;2338;49.602;8.722;2022-12-08T15:41:45;5.70;99.90
4651;DHT22;2338;49.602;8.722;2022-12-08T15:44:31;5.60;99.90
4651;DHT22;2338;49.602;8.722;2022-12-08T15:47:20;5.60;99.90
4651;DHT22;2338;49.602;8.722;2022-12-08T15:50:09;5.50;99.90
4651;DHT22;2338;49.602;8.722;2022-12-08T15:52:58;5.50;99.90
4651;DHT22;2338;49.602;8.722;2022-12-08T15:55:44;5.40;99.90
4651;DHT22;2338;49.602;8.722;2022-12-08T15:58:30;5.40;99.90
4651;DHT22;2338;49.602;8.722;2022-12-08T16:01:15;5.30;99.90
4651;DHT22;2338;49.602;8.722;2022-12-08T16:04:02;5.40;99.90
4651;DHT22;2338;49.602;8.722;2022-12-08T16:06:50;5.40;99.90
4651;DHT22;2338;49.602;8.722;2022-12-08T16:09:38;5.40;99.90
4651;DHT22;2338;49.602;8.722;2022-12-08T16:12:25;5.30;99.90
4651;DHT22;2338;49.602;8.722;2022-12-08T16:15:29;5.40;99.90
4651;DHT22;2338;49.602;8.722;2022-12-08T16:18:19;5.40;99.90
4651;DHT22;2338;49.602;8.722;2022-12-08T16:21:09;5.30;99.90
4651;DHT22;2338;49.602;8.722;2022-12-08T16:23:54;5.50;99.90
4651;DHT22;2338;49.602;8.722;2022-12-08T16:26:40;5.40;99.90
4651;DHT22;2338;49.602;8.722;2022-12-08T16:29:25;5.40;99.90
4651;DHT22;2338;49.602;8.722;2022-12-08T16:32:11;5.40;99.90
4651;DHT22;2338;49.602;8.722;2022-12-08T16:34:58;5.30;99.90
4651;DHT22;2338;49.602;8.722;2022-12-08T16:37:45;5.30;99.90
4651;DHT22;2338;49.602;8.722;2022-12-08T16:40:30;5.30;99.90
4651;DHT22;2338;49.602;8.722;2022-12-08T16:43:15;5.10;99.90
4651;DHT22;2338;49.602;8.722;2022-12-08T16:46:01;4.90;99.90
4651;DHT22;2338;49.602;8.722;2022-12-08T16:48:46;4.90;99.90
4651;DHT22;2338;49.602;8.722;2022-12-08T16:51:32;4.90;99.90
4651;DHT22;2338;49.602;8.722;2022-12-08T16:54:19;4.90;99.90
4651;DHT22;2338;49.602;8.722;2022-12-08T16:57:05;4.90;99.90
4651;DHT22;2338;49.602;8.722;2022-12-08T16:59:50;5.00;99.90
4651;DHT22;2338;49.602;8.722;2022-12-08T17:02:36;5.00;99.90
4651;DHT22;2338;49.602;8.722;2022-12-08T17:05:23;4.90;99.90
4651;DHT22;2338;49.602;8.722;2022-12-08T17:08:09;4.90;99.90
4651;DHT22;2338;49.602;8.722;2022-12-08T17:10:57;4.80;99.90
4651;DHT22;2338;49.602;8.722;2022-12-08T17:13:51;4.70;99.90
4651;DHT22;2338;49.602;8.722;2022-12-08T17:16:37;4.80;99.90
4651;DHT22;2338;49.602;8.722;2022-12-08T17:19:23;4.90;99.90
4651;DHT22;2338;49.602;8.722;2022-12-08T17:22:08;4.90;99.90
4651;DHT22;2338;49.602;8.722;2022-12-08T17:24:54;4.80;99.90
4651;DHT22;2338;49.602;8.722;2022-12-08T17:27:41;4.80;99.90
4651;DHT22;2338;49.602;8.722;2022-12-08T17:30:26;4.90;99.90
4651;DHT22;2338;49.602;8.722;2022-12-08T17:33:12;4.90;99.90
4651;DHT22;2338;49.602;8.722;2022-12-08T17:35:58;4.90;99.90
4651;DHT22;2338;49.602;8.722;2022-12-08T17:38:43;4.90;99.90
4651;DHT22;2338;49.602;8.722;2022-12-08T17:41:29;4.90;99.90
4651;DHT22;2338;49.602;8.722;2022-12-08T17:44:18;4.80;99.90
4651;DHT22;2338;49.602;8.722;2022-12-08T17:47:04;4.80;99.90
4651;DHT22;2338;49.602;8.722;2022-12-08T17:49:49;4.80;99.90
4651;DHT22;2338;49.602;8.722;2022-12-08T17:52:35;4.80;99.90
4651;DHT22;2338;49.602;8.722;2022-12-08T17:55:21;4.70;99.90
4651;DHT22;2338;49.602;8.722;2022-12-08T17:58:07;4.70;99.90
4651;DHT22;2338;49.602;8.722;2022-12-08T18:00:54;4.50;99.90
4651;DHT22;2338;49.602;8.722;2022-12-08T18:03:39;4.60;99.90
4651;DHT22;2338;49.602;8.722;2022-12-08T18:06:25;4.60;99.90
4651;DHT22;2338;49.602;8.722;2022-12-08T18:09:12;4.60;99.90
4651;DHT22;2338;49.602;8.722;2022-12-08T18:11:57;4.70;99.90
4651;DHT22;2338;49.602;8.722;2022-12-08T18:14:43;4.60;99.90
4651;DHT22;2338;49.602;8.722;2022-12-08T18:17:31;4.70;99.90
4651;DHT22;2338;49.602;8.722;2022-12-08T18:20:17;4.70;99.90
4651;DHT22;2338;49.602;8.722;2022-12-08T18:23:02;4.70;99.90
4651;DHT22;2338;49.602;8.722;2022-12-08T18:25:48;4.80;99.90
4651;DHT22;2338;49.602;8.722;2022-12-08T18:28:34;5.00;99.90
4651;DHT22;2338;49.602;8.722;2022-12-08T18:31:21;5.00;99.90
4651;DHT22;2338;49.602;8.722;2022-12-08T18:34:08;4.90;99.90
4651;DHT22;2338;49.602;8.722;2022-12-08T18:36:53;4.80;99.90
4651;DHT22;2338;49.602;8.722;2022-12-08T18:39:39;4.80;99.90
4651;DHT22;2338;49.602;8.722;2022-12-08T18:42:25;4.80;99.90
4651;DHT22;2338;49.602;8.722;2022-12-08T18:45:11;4.80;99.90